A A
   

最近的 特别机场 旧机场 LFCT ThouarsLFMI Istres-Le-TubeLFON Dreux-Vernouillet LFOR Chartres-ChampholLIRG GuidoniaLFBT Tarbes-Lourdes-Pyrénées

飞行员的航空天气,使用METAR(气象机场报告)进行的飞行准备和TAF(终端机场预报:针对以下情况的短期天气预报)航空)。 以及其他资源,例如VAC(目视进近图)和NOTAM(通知飞行员)以进行预试飞行.

METAR, TAF, VAC, NOTAM Shenandoah Valley Regl机场 (美国) / 国际民航组织 KSHD/ IATA SHD

Shenandoah Valley Regl机场 (美国) 它位于附近 Staunton/Waynesboro/Harrisonburg, Weyers Cave 在 3 km, Grottoes 在 6 km, Verona 在 12 km, Crimora 在 13 km, Bridgewater 在 15 km, Massanetta Springs 在 16 km, Dayton 在 17 km, Dooms 在 18 km, Fishersville 在 19 km, Staunton 在 20 km,

海拔 : 366 m = 1201 ft

跑道

的天气 : 天空晴朗 在 Weyers Cave

ciel dégagé
23 °C
99↗-99 °C

的风 0 km/h

的酒店 Shenandoah Valley Regl

Booking.com

的鸟瞰图 Shenandoah Valley Regl

METAR Shenandoah Valley Regl机场的 - KSHD

KSHD 171155Z AUTO 00000KT 10SM CLR 23/19 A3013 RMK AO2 T02290194 10229 20183

Shenandoah Valley Regl机场METAR解码 (美国)

KSHD机场发行的METAR日期2021年07月17日至11:55 GMT. 这是一个自动生成的METAR, 警告:此METAR已过期, 已于 10 天 18 小时 30 分钟.

可见度为 16 km = 10 sm.

温度为23 °C = 73 °F 露点为19 °C = 66 °F 。 这相当于78%的相对湿度。.

QNH是1020 mb = 30.12 inHg

的风 0 km/h = 0 kt, 风向为 0°.

天空晴朗

备注 带有降水传感器的自动站 T02290194 10229 20183

TAF Shenandoah Valley Regl机场的 - KSHD

没有TAF,但可以使用航空天气 Charlottesville Albema机场的 (KCHO) 在 41 km

Shenandoah Valley Regl机场的NOTAM

提供的NOTAM不能保证其时事性。 在将其用于飞行准备或在飞行期间使用之前,飞行员是唯一负责验证其有效性的人员。

国际民航组织没有提供通知

最近的机场 Shenandoah Valley Regl

数据源